Time;durP1;ratioP1;P1;durP2;ratioP2;P2;SDS_P1;SDS_P2;PMS_P1;PMS_P2;Temp;Humidity;BMP_temperature;BMP_pressure;BME280_temperature;BME280_humidity;BME280_pressure;Samples;Min_cycle;Max_cycle;Signal;HPM_P1;HPM_P2
2023/06/16 00:02:17;;;;;;;2.28;1.95;;;27.00;31.40;;;;;;5087534;27;45392;-72
2023/06/16 00:04:44;;;;;;;3.22;2.28;;;27.00;32.10;;;;;;5084674;27;46153;-73
2023/06/16 00:07:11;;;;;;;2.60;2.17;;;27.00;31.50;;;;;;5087391;27;45310;-72
2023/06/16 00:09:38;;;;;;;2.38;2.20;;;26.90;31.50;;;;;;5087504;27;45170;-72
2023/06/16 00:12:07;;;;;;;2.50;2.30;;;26.90;31.50;;;;;;5087868;27;45450;-72
2023/06/16 00:14:34;;;;;;;3.80;2.20;;;26.90;31.50;;;;;;5087570;27;46750;-73
2023/06/16 00:17:03;;;;;;;2.45;2.13;;;26.90;31.60;;;;;;5087173;27;45329;-72
2023/06/16 00:19:30;;;;;;;2.45;2.25;;;26.90;31.60;;;;;;5087437;27;45307;-72
2023/06/16 00:21:59;;;;;;;2.60;2.40;;;26.80;31.60;;;;;;5087665;27;45344;-72
2023/06/16 00:24:26;;;;;;;2.35;2.15;;;26.80;31.60;;;;;;5087132;27;47836;-72
2023/06/16 00:26:54;;;;;;;2.33;2.10;;;26.80;31.70;;;;;;5090047;27;45250;-72
2023/06/16 00:29:22;;;;;;;2.95;2.67;;;26.70;31.70;;;;;;5107629;27;45275;-72
2023/06/16 00:31:49;;;;;;;2.33;2.13;;;26.70;31.70;;;;;;5107146;27;45293;-72
2023/06/16 00:34:16;;;;;;;2.60;2.40;;;26.70;31.70;;;;;;5107452;27;45410;-71
2023/06/16 00:36:43;;;;;;;2.50;2.30;;;26.70;31.80;;;;;;5087906;27;45275;-73
2023/06/16 00:39:10;;;;;;;2.40;2.20;;;26.70;31.80;;;;;;5086959;27;45312;-72
2023/06/16 00:41:37;;;;;;;3.47;2.67;;;26.60;31.80;;;;;;5087185;27;45306;-72
2023/06/16 00:44:04;;;;;;;2.42;2.30;;;26.60;31.70;;;;;;5086833;27;45478;-72
2023/06/16 00:46:33;;;;;;;2.50;2.30;;;26.60;31.80;;;;;;5086828;27;45249;-72
2023/06/16 00:49:00;;;;;;;2.38;2.25;;;26.60;31.80;;;;;;5086873;27;45303;-72
2023/06/16 00:51:27;;;;;;;2.47;2.28;;;26.60;31.80;;;;;;5087097;27;45427;-72
2023/06/16 00:53:54;;;;;;;2.45;2.25;;;26.50;32.40;;;;;;5086754;27;45234;-72
2023/06/16 00:56:23;;;;;;;2.38;2.17;;;26.50;31.80;;;;;;5086878;27;45436;-72
2023/06/16 00:58:51;;;;;;;1.98;1.88;;;26.50;31.70;;;;;;5086944;27;45315;-72
2023/06/16 01:01:18;;;;;;;2.58;2.38;;;26.50;31.80;;;;;;5087057;27;45348;-72
2023/06/16 01:03:50;;;;;;;2.13;2.00;;;26.50;31.80;;;;;;5086400;27;45463;-72
2023/06/16 01:06:22;;;;;;;2.10;2.00;;;26.50;31.80;;;;;;5086560;27;45278;-72
2023/06/16 01:08:51;;;;;;;2.38;2.17;;;26.50;31.80;;;;;;5086922;27;45212;-72
2023/06/16 01:11:21;;;;;;;2.10;2.00;;;26.40;31.80;;;;;;5086967;27;45406;-72
2023/06/16 01:13:50;;;;;;;2.20;2.10;;;26.40;31.80;;;;;;5086471;27;45430;-72
2023/06/16 01:16:17;;;;;;;2.17;2.03;;;26.40;31.80;;;;;;5086732;28;45375;-71
2023/06/16 01:18:48;;;;;;;2.42;2.22;;;26.40;31.80;;;;;;5086456;27;45301;-72
2023/06/16 01:21:19;;;;;;;2.45;2.25;;;26.30;31.80;;;;;;5086977;27;45422;-73
2023/06/16 01:23:58;;;;;;;2.08;1.98;;;26.30;31.80;;;;;;5086043;27;45410;-73
2023/06/16 01:26:26;;;;;;;2.50;2.30;;;26.30;31.90;;;;;;5086292;28;45371;-73
2023/06/16 01:28:52;;;;;;;2.58;2.38;;;26.30;31.90;;;;;;5105810;27;45373;-71
2023/06/16 01:31:19;;;;;;;2.15;1.95;;;26.30;32.00;;;;;;5107093;27;45430;-72
2023/06/16 01:33:46;;;;;;;2.50;2.30;;;26.20;31.90;;;;;;5106686;27;46394;-72
2023/06/16 01:36:13;;;;;;;2.17;2.00;;;26.20;32.00;;;;;;5091445;27;45243;-73
2023/06/16 01:38:40;;;;;;;2.38;2.15;;;26.20;32.60;;;;;;5086130;27;45313;-72
2023/06/16 01:41:09;;;;;;;4.05;2.30;;;26.20;32.10;;;;;;5089645;27;45311;-71
2023/06/16 01:43:35;;;;;;;2.00;1.90;;;26.20;32.10;;;;;;5089529;27;45491;-72
2023/06/16 01:46:02;;;;;;;2.47;2.20;;;26.10;32.10;;;;;;5087081;27;45249;-71
2023/06/16 01:48:29;;;;;;;3.22;2.35;;;26.10;32.10;;;;;;5089637;27;45210;-73
2023/06/16 01:50:56;;;;;;;2.28;2.08;;;26.10;32.10;;;;;;5089933;27;45251;-72
2023/06/16 01:53:23;;;;;;;2.55;2.30;;;26.10;32.10;;;;;;5089354;27;46665;-71
2023/06/16 01:55:50;;;;;;;2.40;2.20;;;26.10;32.20;;;;;;5089687;27;45390;-71
2023/06/16 01:58:18;;;;;;;2.42;2.22;;;26.00;32.20;;;;;;5089595;27;45345;-71
2023/06/16 02:00:48;;;;;;;2.47;2.28;;;26.00;32.20;;;;;;5089699;27;45276;-72
2023/06/16 02:03:16;;;;;;;2.67;2.33;;;26.00;32.90;;;;;;5089027;27;46640;-72
2023/06/16 02:05:45;;;;;;;2.28;2.08;;;26.00;32.30;;;;;;5089401;27;45346;-71
2023/06/16 02:08:12;;;;;;;2.63;2.42;;;26.00;32.20;;;;;;5089220;27;45261;-71
2023/06/16 02:10:39;;;;;;;2.40;2.20;;;25.90;32.20;;;;;;5089663;27;45316;-71
2023/06/16 02:13:05;;;;;;;2.53;1.98;;;25.90;32.20;;;;;;5089192;27;46390;-73
2023/06/16 02:15:34;;;;;;;2.53;2.33;;;25.90;32.20;;;;;;5088656;27;45286;-71
2023/06/16 02:18:02;;;;;;;2.40;2.20;;;25.90;32.20;;;;;;5089103;27;45326;-71
2023/06/16 02:20:29;;;;;;;2.40;2.30;;;25.90;32.20;;;;;;5089445;27;45356;-71
2023/06/16 02:22:56;;;;;;;2.25;2.05;;;25.80;32.30;;;;;;5086342;27;46456;-72
2023/06/16 02:25:23;;;;;;;2.85;2.65;;;25.80;32.30;;;;;;5089119;27;45230;-71
2023/06/16 02:27:49;;;;;;;2.55;2.35;;;25.80;32.30;;;;;;5100181;27;45225;-72
2023/06/16 02:30:16;;;;;;;2.40;2.20;;;25.80;33.00;;;;;;5107145;27;45310;-71
2023/06/16 02:32:48;;;;;;;2.58;2.38;;;25.80;32.40;;;;;;5109390;27;46590;-72
2023/06/16 02:35:15;;;;;;;2.25;2.05;;;25.70;32.30;;;;;;5102279;27;45337;-71
2023/06/16 02:37:42;;;;;;;2.88;2.58;;;25.70;32.40;;;;;;5088820;27;45263;-72
2023/06/16 02:40:10;;;;;;;2.47;2.30;;;25.70;32.40;;;;;;5089143;27;45395;-71
2023/06/16 02:42:37;;;;;;;1.92;1.80;;;25.70;32.40;;;;;;5088688;27;47675;-71
2023/06/16 02:45:04;;;;;;;2.30;2.10;;;25.70;32.50;;;;;;5088843;27;45141;-72
2023/06/16 02:47:31;;;;;;;2.30;2.20;;;25.60;32.40;;;;;;5088693;27;45371;-72
2023/06/16 02:49:59;;;;;;;2.00;1.90;;;25.60;32.40;;;;;;5088740;27;45398;-72
2023/06/16 02:52:26;;;;;;;2.15;2.05;;;25.60;32.50;;;;;;5088533;27;46332;-71
2023/06/16 02:54:53;;;;;;;1.95;1.85;;;25.60;32.50;;;;;;5088459;27;45251;-72
2023/06/16 02:57:20;;;;;;;2.08;1.98;;;25.60;32.50;;;;;;5088704;27;45185;-71
2023/06/16 02:59:47;;;;;;;1.95;1.85;;;25.60;32.50;;;;;;5088723;27;45469;-73
2023/06/16 03:02:14;;;;;;;2.40;2.20;;;25.50;32.50;;;;;;5087221;27;45277;-72
2023/06/16 03:04:42;;;;;;;2.10;1.95;;;25.50;32.50;;;;;;5088330;27;45313;-72
2023/06/16 03:07:11;;;;;;;2.50;2.00;;;25.50;32.50;;;;;;5088481;27;45303;-72
2023/06/16 03:09:37;;;;;;;1.95;1.85;;;25.50;32.50;;;;;;5088631;27;45233;-71
2023/06/16 03:12:05;;;;;;;2.00;1.90;;;25.50;32.50;;;;;;5088245;27;46362;-71
2023/06/16 03:14:32;;;;;;;2.03;1.92;;;25.40;32.50;;;;;;5088255;27;45214;-71
2023/06/16 03:17:00;;;;;;;2.22;2.05;;;25.40;32.50;;;;;;5088241;27;45311;-71
2023/06/16 03:19:27;;;;;;;1.77;1.67;;;25.40;32.50;;;;;;5088200;27;45407;-71
2023/06/16 03:21:53;;;;;;;2.35;2.10;;;25.40;32.60;;;;;;5087974;27;45380;-71
2023/06/16 03:24:22;;;;;;;2.15;1.95;;;25.30;32.50;;;;;;5088314;27;45406;-71
2023/06/16 03:26:49;;;;;;;2.15;2.00;;;25.30;32.60;;;;;;5090961;27;45326;-71
2023/06/16 03:29:16;;;;;;;2.40;2.20;;;25.30;32.60;;;;;;5108730;27;45574;-71
2023/06/16 03:31:43;;;;;;;2.60;2.17;;;25.30;32.60;;;;;;5108391;27;46697;-72
2023/06/16 03:34:10;;;;;;;2.22;2.03;;;25.30;32.60;;;;;;5108412;27;45385;-71
2023/06/16 03:36:39;;;;;;;2.00;1.90;;;25.30;32.60;;;;;;5090119;27;45304;-72
2023/06/16 03:39:05;;;;;;;2.10;2.00;;;25.30;32.70;;;;;;5088060;27;45609;-71
2023/06/16 03:41:34;;;;;;;2.08;1.92;;;25.30;32.60;;;;;;5087617;27;46383;-72
2023/06/16 03:44:01;;;;;;;2.42;2.22;;;25.30;32.60;;;;;;5087697;27;45279;-72
2023/06/16 03:46:29;;;;;;;2.50;2.30;;;25.20;32.60;;;;;;5087453;27;45278;-72
2023/06/16 03:48:57;;;;;;;2.40;2.28;;;25.20;32.60;;;;;;5087110;27;45218;-71
2023/06/16 03:51:24;;;;;;;2.50;2.30;;;25.20;32.70;;;;;;5087579;27;47476;-71
2023/06/16 03:53:51;;;;;;;1.90;1.80;;;25.20;32.70;;;;;;5084989;27;45307;-71
2023/06/16 03:56:18;;;;;;;2.17;2.08;;;25.10;32.80;;;;;;5087860;27;45298;-71
2023/06/16 03:58:48;;;;;;;2.22;2.03;;;25.10;32.80;;;;;;5087584;27;45434;-72
2023/06/16 04:01:15;;;;;;;2.00;1.90;;;25.10;32.80;;;;;;5087401;27;46843;-71
2023/06/16 04:03:42;;;;;;;2.40;2.20;;;25.10;32.80;;;;;;5086425;27;45446;-71
2023/06/16 04:06:09;;;;;;;2.30;2.10;;;25.10;32.90;;;;;;5087660;27;45236;-71
2023/06/16 04:08:36;;;;;;;2.20;2.00;;;25.00;32.80;;;;;;5087596;27;45403;-72
2023/06/16 04:11:03;;;;;;;2.30;2.10;;;25.00;32.90;;;;;;5087615;27;45593;-72
2023/06/16 04:13:30;;;;;;;2.10;1.90;;;25.00;32.90;;;;;;5084698;27;45260;-71
2023/06/16 04:15:58;;;;;;;2.00;1.90;;;25.00;33.00;;;;;;5087470;27;45229;-71
2023/06/16 04:18:25;;;;;;;1.73;1.63;;;25.00;32.90;;;;;;5087555;27;45391;-72
2023/06/16 04:20:52;;;;;;;2.30;2.10;;;25.00;33.00;;;;;;5087095;27;46384;-71
2023/06/16 04:23:19;;;;;;;2.25;1.88;;;25.00;33.00;;;;;;5087090;27;45306;-71
2023/06/16 04:25:46;;;;;;;2.05;1.95;;;25.00;33.00;;;;;;5087328;27;45439;-71
2023/06/16 04:28:14;;;;;;;2.10;2.00;;;25.00;32.90;;;;;;5101648;27;45279;-71
2023/06/16 04:30:42;;;;;;;2.20;2.00;;;25.00;33.00;;;;;;5107719;27;47306;-71
2023/06/16 04:33:10;;;;;;;2.30;2.10;;;24.90;33.00;;;;;;5107053;27;45392;-71
2023/06/16 04:35:39;;;;;;;2.08;1.98;;;24.90;33.00;;;;;;5096745;27;45216;-72
2023/06/16 04:38:07;;;;;;;2.30;2.10;;;24.90;33.00;;;;;;5087026;27;45670;-71
2023/06/16 04:40:33;;;;;;;2.13;1.92;;;24.90;33.00;;;;;;5087138;27;46716;-72
2023/06/16 04:43:00;;;;;;;2.10;2.00;;;24.90;33.10;;;;;;5086808;27;45279;-73
2023/06/16 04:45:27;;;;;;;2.88;2.13;;;24.90;33.00;;;;;;5087039;27;45361;-72
2023/06/16 04:47:54;;;;;;;3.10;2.30;;;24.80;33.00;;;;;;5086823;27;45541;-72
2023/06/16 04:50:22;;;;;;;2.20;2.00;;;24.90;33.10;;;;;;5086560;27;45931;-72
2023/06/16 04:52:49;;;;;;;2.25;2.05;;;24.80;33.00;;;;;;5086666;27;45426;-71
2023/06/16 04:55:17;;;;;;;2.50;2.30;;;24.80;33.00;;;;;;5086838;27;45288;-72
2023/06/16 04:57:44;;;;;;;2.40;2.20;;;24.80;33.00;;;;;;5086890;27;45364;-72
2023/06/16 05:00:11;;;;;;;1.67;1.58;;;24.90;33.00;;;;;;5086573;27;45275;-72
2023/06/16 05:02:38;;;;;;;2.05;1.95;;;24.80;33.00;;;;;;5086378;27;45335;-72
2023/06/16 05:05:06;;;;;;;2.08;1.90;;;24.80;33.00;;;;;;5086543;27;45261;-73
2023/06/16 05:07:36;;;;;;;2.13;2.00;;;24.80;32.90;;;;;;5086681;27;45298;-72
2023/06/16 05:10:04;;;;;;;2.13;1.98;;;24.80;32.90;;;;;;5086335;27;45455;-72
2023/06/16 05:12:32;;;;;;;2.53;2.33;;;24.80;32.90;;;;;;5086434;27;45296;-72
2023/06/16 05:14:59;;;;;;;2.15;2.00;;;24.80;32.90;;;;;;5088052;27;45225;-72
2023/06/16 05:17:26;;;;;;;2.28;1.95;;;24.80;32.90;;;;;;5090331;27;45430;-72
2023/06/16 05:19:53;;;;;;;2.28;2.10;;;24.80;32.90;;;;;;5089404;27;45459;-72
2023/06/16 05:22:23;;;;;;;2.00;1.90;;;24.80;32.90;;;;;;5089494;27;45299;-72
2023/06/16 05:24:53;;;;;;;1.88;1.77;;;24.80;32.90;;;;;;5090131;27;45373;-72
2023/06/16 05:27:22;;;;;;;2.17;2.05;;;24.80;32.90;;;;;;5097212;27;45252;-71
2023/06/16 05:29:49;;;;;;;2.63;2.42;;;24.80;32.90;;;;;;5110074;27;45525;-70
2023/06/16 05:32:16;;;;;;;2.10;2.00;;;24.80;32.90;;;;;;5110227;27;45253;-72
2023/06/16 05:34:43;;;;;;;2.25;2.05;;;24.80;32.90;;;;;;5107871;27;45377;-70
2023/06/16 05:37:15;;;;;;;2.28;1.98;;;24.80;32.90;;;;;;5089953;27;45403;-72
2023/06/16 05:39:42;;;;;;;2.35;1.92;;;24.80;32.90;;;;;;5089641;27;45425;-71
2023/06/16 05:42:10;;;;;;;2.42;2.22;;;24.80;32.90;;;;;;5089606;27;45246;-71
2023/06/16 05:44:37;;;;;;;2.53;2.22;;;24.80;32.90;;;;;;5089530;27;45332;-71
2023/06/16 05:47:05;;;;;;;2.30;2.10;;;24.80;32.90;;;;;;5089826;27;45276;-72
2023/06/16 05:49:31;;;;;;;1.95;1.83;;;24.80;32.90;;;;;;5089039;27;46717;-71
2023/06/16 05:51:59;;;;;;;2.10;1.90;;;24.80;33.60;;;;;;5089355;27;45299;-71
2023/06/16 05:54:26;;;;;;;2.10;1.90;;;24.80;32.90;;;;;;5089508;27;45321;-71
2023/06/16 05:56:53;;;;;;;2.33;1.90;;;24.80;32.90;;;;;;5089473;27;45221;-70
2023/06/16 05:59:21;;;;;;;2.20;2.10;;;24.80;32.90;;;;;;5088956;27;45489;-71
2023/06/16 06:01:49;;;;;;;2.85;1.90;;;24.80;32.90;;;;;;5088910;27;45391;-71
2023/06/16 06:04:16;;;;;;;2.15;1.95;;;24.80;32.90;;;;;;5089003;27;45330;-73
2023/06/16 06:06:43;;;;;;;2.63;2.03;;;24.80;32.90;;;;;;5089335;27;45481;-71
2023/06/16 06:09:09;;;;;;;2.25;2.05;;;24.80;32.90;;;;;;5088114;27;45694;-71
2023/06/16 06:11:36;;;;;;;2.10;2.00;;;24.80;33.00;;;;;;5088454;27;45336;-72
2023/06/16 06:14:03;;;;;;;2.28;1.98;;;24.80;32.90;;;;;;5088298;27;45366;-71
2023/06/16 06:16:31;;;;;;;2.03;1.92;;;24.80;32.90;;;;;;5088485;27;45280;-71
2023/06/16 06:18:58;;;;;;;2.20;2.10;;;24.80;32.90;;;;;;5087862;27;47301;-71
2023/06/16 06:21:25;;;;;;;2.22;2.08;;;24.80;32.90;;;;;;5088115;27;45537;-71
2023/06/16 06:23:52;;;;;;;2.08;1.90;;;24.80;33.00;;;;;;5088249;27;45393;-71
2023/06/16 06:26:20;;;;;;;2.13;1.98;;;24.80;32.90;;;;;;5087772;27;45347;-71
2023/06/16 06:28:47;;;;;;;1.90;1.80;;;24.90;33.00;;;;;;5107180;27;45455;-72
2023/06/16 06:31:14;;;;;;;2.20;2.00;;;24.90;33.00;;;;;;5108449;27;45475;-71
2023/06/16 06:33:42;;;;;;;2.00;1.90;;;24.90;33.00;;;;;;5108662;27;45362;-71
2023/06/16 06:36:10;;;;;;;2.15;2.05;;;25.00;32.90;;;;;;5094229;27;45284;-72
2023/06/16 06:38:36;;;;;;;2.22;2.03;;;25.00;33.50;;;;;;5087614;27;45565;-71
2023/06/16 06:41:03;;;;;;;2.65;2.20;;;25.00;32.90;;;;;;5087522;27;45374;-71
2023/06/16 06:43:30;;;;;;;2.92;1.90;;;25.00;32.90;;;;;;5087949;27;45418;-71
2023/06/16 06:45:57;;;;;;;2.40;2.20;;;25.00;32.90;;;;;;5088002;27;45514;-71
2023/06/16 06:48:24;;;;;;;1.77;1.67;;;25.00;32.90;;;;;;5087355;27;45514;-71
2023/06/16 06:50:52;;;;;;;2.15;1.98;;;25.00;32.90;;;;;;5087700;27;45244;-71
2023/06/16 06:53:19;;;;;;;2.10;1.98;;;25.00;33.50;;;;;;5084998;27;45358;-71
2023/06/16 06:55:46;;;;;;;2.28;2.08;;;25.00;32.90;;;;;;5087869;27;45447;-71
2023/06/16 06:58:12;;;;;;;2.63;2.22;;;25.00;32.90;;;;;;5087310;27;45287;-71
2023/06/16 07:00:39;;;;;;;2.00;1.80;;;25.00;32.90;;;;;;5087534;27;45342;-71
2023/06/16 07:03:06;;;;;;;2.92;2.20;;;25.10;32.90;;;;;;5087181;27;45485;-71
2023/06/16 07:05:34;;;;;;;2.25;2.10;;;25.10;32.90;;;;;;5087644;27;45364;-72
2023/06/16 07:08:02;;;;;;;2.25;2.08;;;25.10;32.90;;;;;;5087150;27;46560;-71
2023/06/16 07:10:29;;;;;;;2.05;1.88;;;25.10;32.90;;;;;;5087152;27;46302;-71
2023/06/16 07:12:56;;;;;;;2.20;2.00;;;25.10;32.90;;;;;;5087389;27;45410;-71
2023/06/16 07:15:23;;;;;;;2.30;2.10;;;25.10;32.90;;;;;;5087621;27;45410;-71
2023/06/16 07:17:50;;;;;;;2.35;1.92;;;25.20;32.90;;;;;;5087077;27;47611;-71
2023/06/16 07:20:17;;;;;;;2.35;2.15;;;25.20;32.90;;;;;;5087025;27;45414;-71
2023/06/16 07:22:45;;;;;;;2.30;2.10;;;25.20;32.90;;;;;;5087427;27;45302;-71
2023/06/16 07:25:13;;;;;;;2.03;1.80;;;25.20;33.00;;;;;;5087382;27;45310;-71
2023/06/16 07:27:40;;;;;;;2.10;2.00;;;25.20;32.90;;;;;;5096701;27;45335;-71
2023/06/16 07:30:08;;;;;;;2.17;1.75;;;25.30;33.70;;;;;;5107331;27;45374;-72
2023/06/16 07:32:36;;;;;;;3.67;2.10;;;25.30;33.00;;;;;;5107752;27;45275;-71
2023/06/16 07:35:02;;;;;;;2.13;1.98;;;25.30;33.00;;;;;;5102414;27;45381;-71
2023/06/16 07:37:30;;;;;;;3.03;2.35;;;25.30;33.10;;;;;;5085746;27;45267;-71
2023/06/16 07:39:56;;;;;;;3.17;2.05;;;25.30;33.10;;;;;;5086849;27;45245;-71
2023/06/16 07:42:25;;;;;;;4.15;2.00;;;25.30;33.10;;;;;;5087026;27;45337;-71
2023/06/16 07:44:52;;;;;;;4.47;2.28;;;25.30;33.00;;;;;;5087250;27;45392;-71
2023/06/16 07:47:19;;;;;;;3.03;2.10;;;25.40;33.10;;;;;;5086563;27;46314;-71
2023/06/16 07:49:46;;;;;;;4.35;2.00;;;25.40;33.00;;;;;;5086610;27;45425;-71
2023/06/16 07:52:13;;;;;;;2.70;1.80;;;25.40;33.00;;;;;;5087268;27;45312;-71
2023/06/16 07:54:41;;;;;;;3.15;2.47;;;25.40;32.90;;;;;;5086921;27;45253;-71
2023/06/16 07:57:08;;;;;;;2.88;2.10;;;25.40;32.80;;;;;;5086503;27;45548;-71
2023/06/16 07:59:36;;;;;;;3.17;2.08;;;25.50;32.90;;;;;;5086643;27;45300;-71
2023/06/16 08:02:03;;;;;;;3.10;2.30;;;25.50;32.80;;;;;;5084120;27;45266;-71
2023/06/16 08:04:30;;;;;;;4.10;2.30;;;25.50;32.90;;;;;;5086828;27;45329;-71
2023/06/16 08:06:58;;;;;;;5.30;2.38;;;25.50;32.90;;;;;;5086364;27;46669;-71
2023/06/16 08:09:24;;;;;;;2.40;2.20;;;25.50;32.90;;;;;;5086290;27;45355;-72
2023/06/16 08:11:51;;;;;;;2.22;2.03;;;25.60;33.00;;;;;;5086481;27;45241;-71
2023/06/16 08:14:18;;;;;;;2.42;2.20;;;25.60;33.00;;;;;;5086772;27;45265;-71
2023/06/16 08:16:46;;;;;;;2.28;2.08;;;25.60;33.00;;;;;;5086365;27;45315;-71
2023/06/16 08:19:13;;;;;;;2.70;2.50;;;25.70;33.10;;;;;;5086576;27;45394;-71
2023/06/16 08:21:40;;;;;;;4.72;1.95;;;25.70;33.00;;;;;;5086493;27;45283;-71
2023/06/16 08:24:07;;;;;;;2.20;2.00;;;25.80;33.10;;;;;;5086629;27;45343;-70
2023/06/16 08:26:34;;;;;;;2.80;2.10;;;25.80;33.40;;;;;;5086638;27;45233;-70
2023/06/16 08:29:03;;;;;;;2.13;1.85;;;25.80;33.40;;;;;;5106361;27;45261;-70
2023/06/16 08:31:29;;;;;;;2.42;2.22;;;25.90;33.30;;;;;;5106742;27;45284;-72
2023/06/16 08:33:59;;;;;;;2.50;2.08;;;25.90;33.10;;;;;;5106947;27;45352;-71
2023/06/16 08:36:26;;;;;;;2.55;2.22;;;25.90;33.00;;;;;;5089362;27;46771;-73
2023/06/16 08:38:53;;;;;;;2.85;2.30;;;25.90;33.00;;;;;;5085982;27;45330;-71
2023/06/16 08:41:20;;;;;;;2.10;2.00;;;26.00;33.00;;;;;;5086090;27;45332;-71
2023/06/16 08:43:49;;;;;;;2.20;2.10;;;26.00;32.90;;;;;;5083484;27;45296;-70
2023/06/16 08:46:16;;;;;;;2.28;2.10;;;26.00;32.80;;;;;;5085740;27;47845;-71
2023/06/16 08:48:42;;;;;;;2.80;2.20;;;26.00;32.80;;;;;;5085396;27;46154;-71
2023/06/16 08:51:13;;;;;;;2.88;2.20;;;26.00;32.90;;;;;;5085921;27;45308;-71
2023/06/16 08:53:40;;;;;;;2.40;2.08;;;26.10;32.90;;;;;;5086020;27;45370;-71
2023/06/16 08:56:07;;;;;;;2.50;2.28;;;26.10;32.90;;;;;;5085605;27;45387;-71
2023/06/16 08:58:34;;;;;;;2.72;2.20;;;26.20;33.00;;;;;;5085405;27;45384;-71
2023/06/16 09:01:03;;;;;;;2.40;2.20;;;26.20;33.00;;;;;;5085896;27;45344;-71
2023/06/16 09:03:32;;;;;;;2.20;2.03;;;26.20;32.90;;;;;;5085577;27;46341;-72
2023/06/16 09:06:00;;;;;;;2.03;1.92;;;26.20;32.90;;;;;;5085592;27;45492;-71
2023/06/16 09:08:29;;;;;;;2.97;2.10;;;26.30;33.00;;;;;;5085556;27;45398;-71
2023/06/16 09:10:56;;;;;;;2.13;1.98;;;26.30;33.00;;;;;;5085374;27;45379;-71
2023/06/16 09:13:24;;;;;;;2.88;2.13;;;26.40;33.00;;;;;;5085589;28;45373;-71
2023/06/16 09:15:51;;;;;;;2.58;2.10;;;26.40;33.00;;;;;;5085208;27;45840;-71
2023/06/16 09:18:18;;;;;;;2.60;2.40;;;26.40;32.90;;;;;;5085135;28;45545;-72
2023/06/16 09:20:51;;;;;;;2.22;2.03;;;26.40;32.90;;;;;;5085385;27;45379;-71
2023/06/16 09:23:28;;;;;;;2.53;2.33;;;26.50;32.90;;;;;;5085968;27;45290;-73
2023/06/16 09:25:55;;;;;;;2.30;2.10;;;26.50;32.90;;;;;;5085318;27;45248;-70
2023/06/16 09:28:33;;;;;;;2.28;2.08;;;26.50;32.80;;;;;;5100754;27;45509;-69
2023/06/16 09:31:01;;;;;;;3.03;2.22;;;26.50;32.70;;;;;;5105959;27;45221;-70
2023/06/16 09:33:29;;;;;;;2.60;2.38;;;26.50;32.80;;;;;;5105876;27;45516;-70
2023/06/16 09:35:55;;;;;;;3.05;2.35;;;26.60;32.90;;;;;;5092972;27;45350;-70
2023/06/16 09:38:23;;;;;;;2.58;2.38;;;26.60;32.90;;;;;;5085186;27;45257;-69
2023/06/16 09:40:51;;;;;;;3.30;2.42;;;26.70;33.00;;;;;;5085548;27;45283;-70
2023/06/16 09:43:18;;;;;;;3.55;2.72;;;26.70;33.00;;;;;;5085636;27;45261;-71
2023/06/16 09:45:45;;;;;;;7.95;2.83;;;26.80;32.80;;;;;;5085463;27;45205;-70
2023/06/16 09:48:12;;;;;;;4.32;2.80;;;26.80;32.60;;;;;;5084937;27;45333;-71
2023/06/16 09:50:40;;;;;;;5.32;2.80;;;26.90;32.60;;;;;;5085223;27;45304;-71
2023/06/16 09:53:07;;;;;;;5.15;2.88;;;26.90;32.60;;;;;;5085467;27;45344;-70
2023/06/16 09:55:37;;;;;;;3.83;3.00;;;26.90;33.10;;;;;;5085078;27;45260;-70
2023/06/16 09:58:05;;;;;;;4.40;2.97;;;27.00;32.40;;;;;;5085117;27;45299;-70
2023/06/16 10:00:33;;;;;;;5.70;2.95;;;27.00;32.30;;;;;;5085833;27;45308;-70
2023/06/16 10:03:00;;;;;;;8.18;3.00;;;27.10;32.10;;;;;;5088452;27;45242;-72
2023/06/16 10:05:28;;;;;;;3.75;3.13;;;27.10;32.90;;;;;;5088372;27;46619;-69
2023/06/16 10:07:56;;;;;;;5.85;3.30;;;27.10;32.30;;;;;;5088327;27;45437;-70
2023/06/16 10:10:25;;;;;;;5.43;3.30;;;27.20;32.60;;;;;;5088668;27;45369;-70
2023/06/16 10:12:53;;;;;;;6.15;3.92;;;27.20;32.90;;;;;;5088710;27;45310;-70
2023/06/16 10:15:23;;;;;;;4.63;3.70;;;27.30;32.80;;;;;;5088351;27;47500;-71
2023/06/16 10:17:50;;;;;;;5.80;3.80;;;27.40;33.00;;;;;;5088269;27;45279;-70
2023/06/16 10:20:18;;;;;;;7.38;4.15;;;27.40;32.80;;;;;;5088349;27;45345;-70
2023/06/16 10:22:45;;;;;;;7.85;3.63;;;27.40;32.70;;;;;;5088638;27;45335;-70
2023/06/16 10:25:12;;;;;;;6.35;3.58;;;27.50;32.40;;;;;;5088109;27;45317;-71
2023/06/16 10:27:40;;;;;;;6.65;3.58;;;27.50;32.10;;;;;;5097804;27;45336;-71
2023/06/16 10:30:09;;;;;;;7.30;3.60;;;27.50;32.80;;;;;;5108600;27;45337;-70
2023/06/16 10:32:38;;;;;;;7.90;3.75;;;27.60;32.10;;;;;;5108736;27;45397;-70
2023/06/16 10:35:06;;;;;;;7.55;3.47;;;27.60;32.00;;;;;;5102877;27;46379;-70
2023/06/16 10:37:33;;;;;;;5.95;3.45;;;27.70;32.00;;;;;;5087826;27;45337;-71
2023/06/16 10:40:04;;;;;;;5.18;3.00;;;27.70;32.20;;;;;;5088186;27;45331;-71
2023/06/16 10:42:33;;;;;;;8.13;3.70;;;27.70;32.20;;;;;;5088146;27;45427;-71
2023/06/16 10:45:15;;;;;;;7.68;3.80;;;27.80;31.00;;;;;;5087846;27;46653;-72
2023/06/16 10:47:54;;;;;;;8.20;3.47;;;27.90;30.30;;;;;;5087613;27;45322;-71
2023/06/16 10:50:21;;;;;;;9.75;3.30;;;27.90;30.20;;;;;;5087915;27;45272;-71
2023/06/16 10:52:54;;;;;;;9.07;3.90;;;27.90;30.80;;;;;;5088218;27;45230;-70
2023/06/16 10:55:35;;;;;;;11.88;3.80;;;28.00;30.80;;;;;;5087665;27;45540;-71
2023/06/16 10:58:21;;;;;;;11.55;4.22;;;28.00;30.70;;;;;;5087521;27;45265;-71
2023/06/16 11:01:04;;;;;;;6.80;3.90;;;28.10;30.30;;;;;;5087835;27;45361;-73
2023/06/16 11:03:43;;;;;;;10.82;3.80;;;28.10;29.40;;;;;;5087740;27;45437;-72
2023/06/16 11:06:10;;;;;;;13.10;3.78;;;28.20;29.40;;;;;;5087431;27;46674;-73
2023/06/16 11:08:51;;;;;;;13.20;4.38;;;28.20;29.70;;;;;;5087487;27;45441;-71
2023/06/16 11:11:17;;;;;;;12.43;3.80;;;28.30;29.60;;;;;;5087414;27;45333;-72
2023/06/16 11:13:45;;;;;;;9.25;4.13;;;28.30;29.60;;;;;;5085297;27;45311;-72
2023/06/16 11:16:11;;;;;;;8.52;3.60;;;28.40;29.60;;;;;;5087272;27;46469;-71
2023/06/16 11:18:40;;;;;;;4.25;3.55;;;28.40;29.60;;;;;;5087238;27;45384;-71
2023/06/16 11:21:07;;;;;;;7.75;3.60;;;28.50;29.60;;;;;;5087516;27;45399;-71
2023/06/16 11:23:34;;;;;;;9.68;3.70;;;28.50;29.70;;;;;;5087558;27;45392;-71
2023/06/16 11:26:05;;;;;;;7.72;3.45;;;28.60;29.60;;;;;;5087011;27;45377;-72
2023/06/16 11:28:33;;;;;;;9.15;3.75;;;28.70;29.80;;;;;;5104168;27;45331;-72
2023/06/16 11:31:01;;;;;;;10.10;3.90;;;28.80;29.70;;;;;;5107822;27;45332;-72
2023/06/16 11:33:28;;;;;;;7.75;3.85;;;28.80;29.80;;;;;;5107826;27;45611;-72
2023/06/16 11:35:57;;;;;;;7.03;3.17;;;28.90;29.90;;;;;;5094739;27;45597;-72
2023/06/16 11:38:25;;;;;;;8.13;3.97;;;28.90;29.90;;;;;;5086943;27;45247;-72
2023/06/16 11:40:53;;;;;;;5.25;3.35;;;29.00;29.80;;;;;;5087313;27;45355;-73
2023/06/16 11:43:22;;;;;;;4.35;3.60;;;29.10;29.70;;;;;;5105935;27;45441;-72
2023/06/16 11:45:49;;;;;;;6.60;3.60;;;29.10;29.60;;;;;;5106818;27;45252;-72
2023/06/16 11:48:16;;;;;;;7.05;3.42;;;29.20;29.20;;;;;;5097929;27;45398;-72
2023/06/16 11:50:44;;;;;;;4.90;3.03;;;29.30;29.30;;;;;;5106887;27;45404;-72
2023/06/16 11:53:15;;;;;;;5.10;2.97;;;29.30;29.10;;;;;;5090253;27;45232;-72
2023/06/16 11:55:49;;;;;;;4.60;3.20;;;29.40;29.30;;;;;;5100131;27;45453;-73
2023/06/16 11:58:16;;;;;;;5.25;3.13;;;29.50;29.10;;;;;;5097954;27;45291;-73
2023/06/16 12:00:42;;;;;;;3.47;3.17;;;29.60;29.00;;;;;;5091616;27;45348;-73
2023/06/16 12:03:09;;;;;;;3.70;3.13;;;29.60;28.70;;;;;;5094953;27;45453;-72
2023/06/16 12:05:37;;;;;;;3.25;2.92;;;29.60;27.90;;;;;;5100773;27;45267;-73
2023/06/16 12:08:04;;;;;;;3.10;2.80;;;29.70;28.10;;;;;;5096222;27;45350;-71
2023/06/16 12:10:33;;;;;;;6.78;3.33;;;29.80;28.20;;;;;;5093212;27;45472;-72
2023/06/16 12:13:00;;;;;;;4.05;3.17;;;29.90;28.20;;;;;;5104447;27;45536;-74
2023/06/16 12:15:27;;;;;;;5.40;3.00;;;30.00;28.10;;;;;;5091913;27;45483;-75
2023/06/16 12:17:55;;;;;;;3.38;3.08;;;30.00;27.80;;;;;;5107631;27;45327;-74
2023/06/16 12:20:23;;;;;;;3.72;3.17;;;30.10;27.50;;;;;;5108563;27;45306;-74
2023/06/16 12:22:54;;;;;;;4.50;3.00;;;30.10;27.60;;;;;;5107983;27;45302;-74
2023/06/16 12:25:21;;;;;;;5.25;3.20;;;30.20;27.80;;;;;;5107713;27;45538;-74
2023/06/16 12:27:51;;;;;;;3.40;3.10;;;30.30;27.80;;;;;;5106722;27;45357;-76
2023/06/16 12:30:18;;;;;;;5.57;3.03;;;30.30;27.60;;;;;;5107786;27;45322;-74
2023/06/16 12:32:45;;;;;;;4.43;2.95;;;30.40;27.50;;;;;;5108072;27;45512;-74
2023/06/16 12:35:12;;;;;;;5.30;3.30;;;30.50;27.40;;;;;;5107637;27;45564;-74
2023/06/16 12:37:41;;;;;;;6.22;2.97;;;30.50;27.50;;;;;;5107608;27;45414;-75
2023/06/16 12:40:11;;;;;;;9.13;3.13;;;30.50;27.80;;;;;;5107836;27;45306;-74
2023/06/16 12:42:38;;;;;;;7.85;3.42;;;30.60;27.60;;;;;;5107798;27;45387;-75
2023/06/16 12:45:07;;;;;;;8.52;3.85;;;30.80;27.70;;;;;;5107397;27;46512;-74
2023/06/16 12:47:34;;;;;;;12.07;3.75;;;30.80;27.70;;;;;;5107514;27;45265;-74
2023/06/16 12:50:02;;;;;;;5.72;3.42;;;30.90;27.40;;;;;;5107709;27;45329;-74